^^
Station Historical Data
 
Daily Summary for November 25, 2017 Units:  English    Metric   Both
« Previous Day
Next Day »
Daily Weekly Monthly Yearly Custom
  Current: High: Low: Average:
Temperature: 27.9 °F 28.9 °F 27.9 °F 28.3 °F
Dew Point: 25.9 °F 26.6 °F 25.5 °F 26 °F
Humidity: 92% 92% 90% 91%
Wind Speed: 0.0mph 0.0mph 0.0mph 0mph
Wind Gust: 0.0mph 0.0mph - -
WindCalm - - North
Pressure: 29.90 in 29.94 in 29.90 in -
Precipitation: 0.00 in      
Historical Graphs
 
 
Tabular Data for November 25, 2017
Time Temperature Dew Point Pressure Wind Wind Speed Wind Gust Humidity Rainfall Rate (Hourly) solar Conditions
00:04 28.8 °F 26.2 °F 29.94 in Calm     90% 0.00 in meteobridge W/m2
00:09 28.8 °F 26.2 °F 29.94 in Calm     90% 0.00 in meteobridge W/m2
00:19 28.8 °F 26.2 °F 29.93 in Calm     90% 0.00 in meteobridge W/m2
00:24 28.6 °F 26.2 °F 29.93 in Calm     91% 0.00 in meteobridge W/m2
00:29 28.4 °F 26.1 °F 29.93 in Calm     91% 0.00 in meteobridge W/m2
00:34 28.2 °F 25.9 °F 29.93 in Calm     91% 0.00 in meteobridge W/m2
00:39 28.6 °F 26.2 °F 29.92 in Calm     91% 0.00 in meteobridge W/m2
00:44 28.8 °F 26.4 °F 29.92 in Calm     91% 0.00 in meteobridge W/m2
00:49 28.8 °F 26.4 °F 29.92 in Calm     91% 0.00 in meteobridge W/m2
00:54 28.9 °F 26.6 °F 29.91 in Calm     91% 0.00 in meteobridge W/m2
00:59 28.8 °F 26.4 °F 29.91 in Calm     91% 0.00 in meteobridge W/m2
01:05 28.6 °F 26.2 °F 29.91 in Calm     91% 0.00 in meteobridge W/m2
01:09 28.2 °F 25.9 °F 29.91 in Calm     91% 0.00 in meteobridge W/m2
01:15 28.2 °F 25.9 °F 29.91 in Calm     91% 0.00 in meteobridge W/m2
01:20 28.4 °F 26.1 °F 29.91 in Calm     91% 0.00 in meteobridge W/m2
01:25 28.2 °F 25.9 °F 29.90 in Calm     91% 0.00 in meteobridge W/m2
01:30 28.0 °F 25.7 °F 29.90 in Calm     91% 0.00 in meteobridge W/m2
01:35 27.9 °F 25.5 °F 29.90 in Calm     91% 0.00 in meteobridge W/m2
01:40 28.0 °F 25.7 °F 29.90 in Calm     91% 0.00 in meteobridge W/m2
01:50 27.9 °F 25.5 °F 29.90 in Calm     91% 0.00 in meteobridge W/m2
01:55 27.9 °F 25.9 °F 29.90 in Calm     92% 0.00 in meteobridge W/m2
02:00 27.9 °F 25.9 °F 29.90 in Calm     92% 0.00 in meteobridge W/m2
02:05 27.9 °F 25.9 °F 29.90 in Calm     92% 0.00 in meteobridge W/m2
02:10 27.9 °F 25.9 °F 29.90 in Calm     92% 0.00 in meteobridge W/m2
02:15 27.9 °F 25.9 °F 29.90 in Calm     92% 0.00 in meteobridge W/m2
Atglen Borough, Pennsylvania, USA
Compliments of Weather Underground - 1 mb